Time;durP1;ratioP1;P1;durP2;ratioP2;P2;SDS_P1;SDS_P2;PMS_P1;PMS_P2;Temp;Humidity;BMP_temperature;BMP_pressure;BME280_temperature;BME280_humidity;BME280_pressure;Samples;Min_cycle;Max_cycle;Signal;HPM_P1;HPM_P2
2023/07/29 00:00:49;;;;;;;8.70;3.15;;;;;;;16.76;75.78;98826.78;5071667;28;20029;-67
2023/07/29 00:03:15;;;;;;;4.95;2.80;;;;;;;16.81;75.47;98815.38;5071706;28;20098;-64
2023/07/29 00:05:40;;;;;;;4.40;2.30;;;;;;;16.85;75.52;98811.25;5070541;28;20039;-65
2023/07/29 00:08:06;;;;;;;6.22;2.92;;;;;;;16.86;75.11;98808.38;5071564;28;20060;-65
2023/07/29 00:10:37;;;;;;;3.60;3.17;;;;;;;16.88;75.24;98821.69;5070215;28;20087;-64
2023/07/29 00:13:03;;;;;;;3.45;2.80;;;;;;;16.84;75.29;98821.25;5071360;28;20421;-65
2023/07/29 00:15:29;;;;;;;4.78;2.90;;;;;;;16.84;74.97;98831.22;5071531;28;20033;-65
2023/07/29 00:17:54;;;;;;;4.88;2.67;;;;;;;16.85;75.08;98832.88;5071574;28;20035;-65
2023/07/29 00:20:20;;;;;;;6.38;2.55;;;;;;;16.84;74.75;98829.38;5071142;28;20913;-65
2023/07/29 00:22:45;;;;;;;2.95;2.33;;;;;;;16.82;74.97;98828.72;5089249;28;20056;-64
2023/07/29 00:25:11;;;;;;;5.35;3.28;;;;;;;16.83;75.29;98829.53;5074818;28;20024;-65
2023/07/29 00:27:36;;;;;;;3.80;3.00;;;;;;;16.85;74.90;98830.19;5073749;28;20028;-64
2023/07/29 00:30:02;;;;;;;3.58;3.28;;;;;;;16.80;74.95;98819.97;5075339;28;20368;-65
2023/07/29 00:32:31;;;;;;;3.63;2.85;;;;;;;16.87;74.63;98825.44;5058375;28;20398;-66
2023/07/29 00:34:56;;;;;;;3.85;3.22;;;;;;;16.93;74.79;98827.41;5073830;28;20139;-65
2023/07/29 00:37:22;;;;;;;5.25;3.30;;;;;;;16.96;74.53;98840.53;5074673;28;20125;-64
2023/07/29 00:39:47;;;;;;;5.20;2.95;;;;;;;16.96;73.89;98836.97;5074949;28;20052;-64
2023/07/29 00:42:13;;;;;;;5.20;3.30;;;;;;;16.94;73.78;98831.78;5074798;28;20036;-65
2023/07/29 00:44:38;;;;;;;7.25;3.10;;;;;;;16.78;73.85;98813.91;5074560;28;20105;-64
2023/07/29 00:47:05;;;;;;;4.45;2.75;;;;;;;16.86;74.01;98834.56;5073155;28;20075;-66
2023/07/29 00:49:32;;;;;;;3.60;3.15;;;;;;;16.81;73.93;98823.50;5075417;28;20036;-65
2023/07/29 00:51:58;;;;;;;3.78;2.97;;;;;;;16.73;74.21;98813.63;5074749;28;20073;-66
2023/07/29 00:54:24;;;;;;;3.83;3.17;;;;;;;16.75;74.12;98816.97;5074404;28;20115;-66
2023/07/29 00:56:49;;;;;;;10.27;5.45;;;;;;;16.73;74.69;98814.47;5074394;28;20498;-66
2023/07/29 00:59:15;;;;;;;3.63;3.08;;;;;;;16.69;74.49;98812.31;5074935;28;20465;-66
2023/07/29 01:01:41;;;;;;;4.45;3.70;;;;;;;16.70;74.47;98822.97;5073327;28;20364;-66
2023/07/29 01:04:06;;;;;;;3.97;3.20;;;;;;;16.69;74.91;98813.19;5073902;28;20317;-65
2023/07/29 01:06:37;;;;;;;7.50;4.03;;;;;;;16.65;74.58;98820.81;5074352;28;20393;-66
2023/07/29 01:09:07;;;;;;;5.00;3.78;;;;;;;16.59;74.38;98805.34;5074080;28;20075;-64
2023/07/29 01:11:44;;;;;;;5.60;3.55;;;;;;;16.46;74.25;98765.50;5073545;28;20421;-65
2023/07/29 01:14:27;;;;;;;3.92;3.55;;;;;;;16.68;74.65;98792.59;5073849;28;20063;-66
2023/07/29 01:16:58;;;;;;;4.90;3.20;;;;;;;16.59;74.75;98793.69;5073813;28;20036;-65
2023/07/29 01:19:42;;;;;;;5.15;3.58;;;;;;;16.57;75.28;98785.78;5074111;28;20037;-65
2023/07/29 01:22:08;;;;;;;4.43;3.20;;;;;;;16.56;75.08;98788.69;5073693;28;20178;-63
2023/07/29 01:24:34;;;;;;;6.00;2.78;;;;;;;16.53;75.16;98783.66;5073453;28;20028;-68
2023/07/29 01:27:01;;;;;;;4.47;2.63;;;;;;;16.49;75.13;98786.72;5073182;28;20044;-66
2023/07/29 01:29:27;;;;;;;3.70;2.97;;;;;;;16.50;75.01;98788.41;5072715;28;20119;-66
2023/07/29 01:32:00;;;;;;;4.45;2.90;;;;;;;16.56;75.34;98780.56;5072485;28;20064;-65
2023/07/29 01:34:50;;;;;;;5.25;3.00;;;;;;;16.64;75.26;98780.47;5073012;28;20064;-65
2023/07/29 01:37:22;;;;;;;3.97;2.92;;;;;;;16.49;75.14;98767.81;5073294;28;20098;-65
2023/07/29 01:39:50;;;;;;;7.00;2.80;;;;;;;16.49;75.01;98780.47;5073576;28;20043;-65
2023/07/29 01:42:16;;;;;;;8.88;3.28;;;;;;;16.43;75.54;98776.69;5073248;28;20316;-65
2023/07/29 01:44:42;;;;;;;4.55;3.05;;;;;;;16.39;75.51;98769.97;5072685;28;20107;-65
2023/07/29 01:47:08;;;;;;;4.13;3.30;;;;;;;16.30;75.11;98763.00;5072592;28;20068;-66
2023/07/29 01:49:33;;;;;;;4.90;2.75;;;;;;;16.35;75.34;98755.16;5073687;28;20408;-65
2023/07/29 01:51:59;;;;;;;5.85;3.35;;;;;;;16.28;75.27;98748.84;5071452;28;20125;-64
2023/07/29 01:54:25;;;;;;;5.43;3.00;;;;;;;16.31;75.95;98753.88;5072585;28;20036;-65
2023/07/29 01:56:51;;;;;;;6.32;3.05;;;;;;;16.30;75.81;98765.69;5073781;28;20115;-65
2023/07/29 01:59:16;;;;;;;5.78;3.20;;;;;;;16.26;75.82;98769.81;5072735;28;20120;-64
2023/07/29 02:01:42;;;;;;;5.45;3.05;;;;;;;16.22;75.96;98761.22;5072309;28;20024;-64
2023/07/29 02:04:08;;;;;;;3.42;2.70;;;;;;;16.26;76.26;98770.63;5073036;28;20388;-65
2023/07/29 02:06:34;;;;;;;4.20;3.10;;;;;;;16.29;76.13;98764.03;5072968;28;20025;-64
2023/07/29 02:09:00;;;;;;;3.47;2.78;;;;;;;16.14;75.98;98745.94;5072773;28;20036;-65
2023/07/29 02:11:27;;;;;;;4.75;3.00;;;;;;;16.31;76.02;98773.63;5072663;28;20113;-65
2023/07/29 02:13:54;;;;;;;4.53;2.83;;;;;;;16.30;76.30;98782.75;5072410;28;20036;-65
2023/07/29 02:16:20;;;;;;;3.75;2.60;;;;;;;16.34;76.18;98784.06;5073068;28;20165;-65
2023/07/29 02:18:46;;;;;;;3.28;2.88;;;;;;;16.32;76.20;98790.66;5072272;28;20479;-65
2023/07/29 02:21:12;;;;;;;5.35;3.03;;;;;;;16.43;76.19;98802.84;5072522;28;20032;-67
2023/07/29 02:23:37;;;;;;;4.45;2.95;;;;;;;16.43;75.70;98803.69;5072138;28;20177;-67
2023/07/29 02:26:03;;;;;;;3.75;2.67;;;;;;;16.52;75.79;98815.25;5073071;28;20036;-65
2023/07/29 02:28:28;;;;;;;2.88;2.55;;;;;;;16.56;75.92;98824.66;5072695;28;20032;-66
2023/07/29 02:31:20;;;;;;;5.13;2.78;;;;;;;16.70;75.75;98820.25;5072202;28;20457;-65
2023/07/29 02:33:45;;;;;;;4.05;2.92;;;;;;;16.58;75.86;98816.34;5072755;28;20094;-65
2023/07/29 02:36:12;;;;;;;5.28;2.90;;;;;;;16.61;75.83;98821.38;5071994;28;20032;-65
2023/07/29 02:38:38;;;;;;;3.65;2.78;;;;;;;16.57;75.82;98812.81;5072874;28;20460;-67
2023/07/29 02:41:04;;;;;;;3.85;3.00;;;;;;;16.59;75.63;98818.03;5071368;28;20128;-66
2023/07/29 02:43:29;;;;;;;5.57;2.90;;;;;;;16.41;75.79;98778.75;5073080;28;20081;-65
2023/07/29 02:45:55;;;;;;;3.40;2.83;;;;;;;16.60;75.64;98809.75;5072149;28;20425;-65
2023/07/29 02:48:20;;;;;;;3.72;3.15;;;;;;;16.47;75.69;98793.34;5054720;28;20020;-66
2023/07/29 02:50:46;;;;;;;3.38;3.08;;;;;;;16.61;75.75;98802.44;5071855;28;20040;-65
2023/07/29 02:53:11;;;;;;;3.92;3.03;;;;;;;16.62;75.61;98791.47;5072032;28;20449;-67
2023/07/29 02:55:40;;;;;;;7.18;3.25;;;;;;;16.68;75.77;98780.94;5072800;28;20032;-64
2023/07/29 02:58:06;;;;;;;5.07;3.22;;;;;;;16.59;75.60;98782.88;5071825;28;20040;-65
2023/07/29 03:00:32;;;;;;;4.10;3.13;;;;;;;16.60;75.82;98787.25;5072216;28;20028;-66
2023/07/29 03:02:59;;;;;;;6.20;3.35;;;;;;;16.58;76.04;98806.38;5070977;28;20025;-65
2023/07/29 03:05:24;;;;;;;5.78;3.75;;;;;;;16.57;75.76;98790.34;5072103;28;20039;-64
2023/07/29 03:07:50;;;;;;;6.15;3.00;;;;;;;16.58;75.67;98795.56;5071700;28;20355;-66
2023/07/29 03:10:15;;;;;;;4.82;3.80;;;;;;;16.58;75.93;98802.84;5071507;28;20102;-66
2023/07/29 03:12:41;;;;;;;5.47;3.53;;;;;;;16.56;76.06;98788.69;5071705;28;20028;-66
2023/07/29 03:15:07;;;;;;;6.88;3.85;;;;;;;16.57;75.94;98791.19;5072213;28;20029;-64
2023/07/29 03:17:32;;;;;;;6.20;3.78;;;;;;;16.59;76.13;98791.00;5071523;28;20064;-65
2023/07/29 03:19:58;;;;;;;4.10;3.67;;;;;;;16.41;76.01;98751.72;5072149;28;20082;-65
2023/07/29 03:22:23;;;;;;;5.07;3.60;;;;;;;16.62;75.77;98779.81;5071977;28;20360;-65
2023/07/29 03:24:49;;;;;;;6.97;4.35;;;;;;;16.60;76.08;98773.75;5071685;28;20492;-67
2023/07/29 03:27:15;;;;;;;3.92;3.60;;;;;;;16.63;76.21;98770.66;5072051;28;20065;-64
2023/07/29 03:29:41;;;;;;;6.32;5.72;;;;;;;16.67;76.56;98765.75;5071695;28;20123;-68
2023/07/29 03:32:07;;;;;;;7.88;4.90;;;;;;;16.60;76.08;98765.66;5072005;28;20032;-64
2023/07/29 03:34:33;;;;;;;5.93;4.28;;;;;;;16.61;76.31;98753.81;5071357;28;20070;-65
2023/07/29 03:37:00;;;;;;;6.43;4.47;;;;;;;16.63;76.00;98768.81;5071357;28;20473;-65
2023/07/29 03:39:26;;;;;;;7.45;3.90;;;;;;;16.60;75.88;98763.81;5071591;28;20441;-65
2023/07/29 03:41:52;;;;;;;4.30;3.90;;;;;;;16.65;75.66;98764.06;5071980;28;20032;-64
2023/07/29 03:44:18;;;;;;;6.53;4.00;;;;;;;16.62;76.51;98760.88;5072066;28;20025;-65
2023/07/29 03:46:44;;;;;;;5.28;4.25;;;;;;;16.61;76.59;98751.09;5071364;28;20058;-65
2023/07/29 03:49:10;;;;;;;6.20;4.28;;;;;;;16.63;76.88;98749.06;5071090;28;20024;-64
2023/07/29 03:51:36;;;;;;;4.82;4.00;;;;;;;16.67;76.74;98750.38;5071910;28;20346;-65
2023/07/29 03:54:01;;;;;;;5.78;4.55;;;;;;;16.70;76.66;98741.88;5071217;28;20036;-65
2023/07/29 03:56:27;;;;;;;4.70;3.97;;;;;;;16.70;76.78;98739.19;5071835;28;20025;-63
2023/07/29 03:58:53;;;;;;;5.00;4.00;;;;;;;16.74;76.46;98736.91;5072975;28;20029;-64
2023/07/29 04:01:19;;;;;;;4.80;3.92;;;;;;;16.77;76.35;98734.69;5075857;28;20058;-63
2023/07/29 04:03:46;;;;;;;5.85;4.15;;;;;;;16.79;76.19;98731.78;5075566;28;20028;-64
2023/07/29 04:06:12;;;;;;;5.13;4.63;;;;;;;16.84;76.45;98736.59;5075271;28;20115;-65
2023/07/29 04:08:37;;;;;;;5.00;4.15;;;;;;;16.87;76.48;98733.50;5075399;28;20127;-65
2023/07/29 04:11:03;;;;;;;5.70;3.92;;;;;;;16.90;76.11;98738.56;5074630;28;20107;-63
2023/07/29 04:13:29;;;;;;;6.57;4.53;;;;;;;16.90;75.91;98725.06;5075447;28;20085;-64
2023/07/29 04:15:54;;;;;;;5.88;4.30;;;;;;;16.92;75.73;98726.50;5074302;28;20052;-64
2023/07/29 04:18:20;;;;;;;4.72;3.83;;;;;;;16.90;75.61;98725.88;5074624;28;20032;-64
2023/07/29 04:20:45;;;;;;;6.25;4.32;;;;;;;16.91;75.71;98729.44;5075513;28;20039;-64
2023/07/29 04:23:11;;;;;;;4.50;4.10;;;;;;;16.91;75.30;98726.72;5075289;28;20103;-64
2023/07/29 04:25:37;;;;;;;6.68;4.57;;;;;;;16.94;75.30;98729.03;5074745;28;20108;-63
2023/07/29 04:28:04;;;;;;;5.15;4.30;;;;;;;16.94;75.46;98735.25;5074931;28;20032;-64
2023/07/29 04:30:30;;;;;;;8.00;4.20;;;;;;;17.01;75.45;98729.97;5075420;28;20119;-63
2023/07/29 04:32:55;;;;;;;5.10;3.50;;;;;;;17.11;75.31;98729.66;5074404;28;20111;-63
2023/07/29 04:35:21;;;;;;;4.25;3.85;;;;;;;17.17;74.51;98728.84;5074437;28;20043;-64
2023/07/29 04:37:47;;;;;;;3.97;3.67;;;;;;;17.18;74.20;98716.19;5074829;28;20056;-65
2023/07/29 04:40:13;;;;;;;8.77;4.03;;;;;;;17.07;73.87;98688.63;5074799;28;20087;-64
2023/07/29 04:42:39;;;;;;;4.78;4.28;;;;;;;17.27;73.45;98725.00;5075096;28;20358;-63
2023/07/29 04:45:06;;;;;;;5.80;3.58;;;;;;;17.27;73.33;98730.41;5074240;28;20028;-64
2023/07/29 04:47:31;;;;;;;5.72;3.90;;;;;;;17.22;73.31;98723.69;5074077;28;20063;-63
2023/07/29 04:49:57;;;;;;;5.10;3.95;;;;;;;17.18;73.54;98729.72;5074435;28;20115;-62
2023/07/29 04:52:22;;;;;;;4.95;3.90;;;;;;;16.66;73.64;98651.41;5074754;28;20356;-64
2023/07/29 04:54:48;;;;;;;4.00;3.60;;;;;;;17.17;73.55;98730.75;5073164;28;20096;-62
2023/07/29 04:57:13;;;;;;;4.18;3.58;;;;;;;17.04;73.60;98707.13;5074764;28;20036;-63
2023/07/29 04:59:39;;;;;;;6.53;3.63;;;;;;;16.96;73.09;98691.81;5074229;28;20029;-64
2023/07/29 05:02:05;;;;;;;4.20;3.80;;;;;;;17.13;73.50;98721.34;5073426;28;20048;-63
2023/07/29 05:04:30;;;;;;;5.35;3.78;;;;;;;17.15;73.40;98716.59;5074380;28;20036;-55
2023/07/29 05:06:56;;;;;;;4.40;3.50;;;;;;;17.19;73.43;98721.38;5073823;28;20457;-60
2023/07/29 05:09:21;;;;;;;5.00;3.80;;;;;;;17.22;73.39;98706.66;5072557;28;20026;-60
2023/07/29 05:11:48;;;;;;;4.53;3.70;;;;;;;17.27;73.31;98706.91;5073747;28;20033;-69
2023/07/29 05:14:15;;;;;;;4.13;3.60;;;;;;;17.30;73.30;98711.91;5070596;28;20372;-59
2023/07/29 05:16:41;;;;;;;4.30;3.90;;;;;;;17.27;73.08;98715.00;5073791;28;20437;-63
2023/07/29 05:19:06;;;;;;;5.43;3.85;;;;;;;17.07;73.26;98680.50;5073369;28;20062;-58
2023/07/29 05:21:32;;;;;;;3.33;3.03;;;;;;;17.22;73.28;98693.13;5073685;28;20044;-61
2023/07/29 05:23:58;;;;;;;3.78;2.97;;;;;;;17.28;72.80;98694.22;5073132;28;20082;-62
2023/07/29 05:26:23;;;;;;;5.57;3.22;;;;;;;17.29;72.58;98688.59;5073105;28;20033;-63
2023/07/29 05:28:49;;;;;;;4.20;3.50;;;;;;;17.32;73.22;98685.50;5073821;28;20050;-60
2023/07/29 05:31:14;;;;;;;4.10;3.40;;;;;;;17.36;72.77;98685.97;5074371;28;20048;-62
2023/07/29 05:33:40;;;;;;;2.83;2.53;;;;;;;17.44;72.21;98685.81;5073012;28;20094;-60
2023/07/29 05:36:06;;;;;;;5.55;2.65;;;;;;;17.35;72.08;98659.94;5073505;28;20040;-64
2023/07/29 05:38:31;;;;;;;3.88;2.78;;;;;;;17.67;71.80;98683.88;5073120;28;20027;-77
2023/07/29 05:40:57;;;;;;;4.32;2.80;;;;;;;17.87;71.38;98684.84;5073624;28;20038;-57
2023/07/29 05:43:24;;;;;;;7.43;3.08;;;;;;;18.02;70.62;98686.59;5073386;28;20090;-60
2023/07/29 05:45:50;;;;;;;3.22;2.92;;;;;;;18.05;69.96;98681.63;5073544;28;20036;-60
2023/07/29 05:48:16;;;;;;;4.60;3.30;;;;;;;18.15;70.15;98683.13;5073553;28;20028;-62
2023/07/29 05:50:41;;;;;;;6.32;3.10;;;;;;;18.17;69.76;98691.88;5073460;28;20064;-65
2023/07/29 05:53:07;;;;;;;6.35;2.95;;;;;;;18.25;69.67;98701.72;5072961;28;20038;-59
2023/07/29 05:55:32;;;;;;;3.90;3.10;;;;;;;18.16;69.34;98688.34;5073433;28;20103;-61
2023/07/29 05:57:58;;;;;;;4.38;2.90;;;;;;;18.28;68.88;98701.31;5073910;28;20024;-60
2023/07/29 06:00:23;;;;;;;4.43;2.92;;;;;;;18.24;68.71;98698.19;5065401;28;20055;-61
2023/07/29 06:02:49;;;;;;;4.10;2.40;;;;;;;18.19;68.85;98709.63;5053928;28;20115;-63
2023/07/29 06:05:15;;;;;;;9.43;3.00;;;;;;;18.09;68.95;98703.75;5053928;28;20045;-60
2023/07/29 06:07:43;;;;;;;3.28;2.90;;;;;;;18.15;69.39;98724.59;5053667;28;20045;-62
2023/07/29 06:10:13;;;;;;;3.70;3.17;;;;;;;18.22;69.17;98725.47;5055174;28;20303;-60
2023/07/29 06:12:39;;;;;;;4.93;3.38;;;;;;;18.29;68.71;98719.25;5073132;28;20052;-61
2023/07/29 06:15:05;;;;;;;12.88;3.42;;;;;;;18.10;68.94;98697.28;5073290;28;20050;-61
2023/07/29 06:17:30;;;;;;;4.55;2.55;;;;;;;18.08;68.78;98704.75;5073741;28;20452;-59
2023/07/29 06:19:56;;;;;;;4.35;2.70;;;;;;;18.24;68.92;98735.25;5071872;28;20090;-59
2023/07/29 06:22:22;;;;;;;4.68;3.08;;;;;;;18.25;69.38;98734.22;5072128;28;20516;-62
2023/07/29 06:24:47;;;;;;;4.22;3.10;;;;;;;18.26;69.13;98736.75;5071484;28;20025;-61
2023/07/29 06:27:13;;;;;;;3.78;3.00;;;;;;;18.17;69.18;98722.53;5072132;28;20089;-62
2023/07/29 06:29:38;;;;;;;3.88;3.40;;;;;;;18.00;69.54;98713.88;5072553;28;20036;-63
2023/07/29 06:32:04;;;;;;;4.05;3.20;;;;;;;18.02;69.79;98743.47;5072346;28;20040;-63
2023/07/29 06:34:30;;;;;;;4.47;3.28;;;;;;;17.99;70.38;98755.53;5071923;28;20093;-62
2023/07/29 06:36:55;;;;;;;3.30;3.00;;;;;;;18.01;71.07;98748.06;5072847;28;20444;-62
2023/07/29 06:39:21;;;;;;;5.07;2.78;;;;;;;18.05;70.43;98746.63;5072468;28;20033;-69
2023/07/29 06:41:47;;;;;;;6.38;3.38;;;;;;;18.11;70.12;98761.25;5072757;28;20132;-62
2023/07/29 06:44:12;;;;;;;5.55;3.10;;;;;;;18.15;70.69;98761.69;5072746;28;20032;-62
2023/07/29 06:46:38;;;;;;;3.83;3.40;;;;;;;18.17;70.94;98771.28;5072204;28;20154;-62
2023/07/29 06:49:03;;;;;;;5.25;3.15;;;;;;;18.18;71.02;98756.72;5072514;28;20089;-62
2023/07/29 06:51:32;;;;;;;4.72;3.28;;;;;;;18.19;70.67;98766.50;5071817;28;20028;-63
2023/07/29 06:53:58;;;;;;;5.18;3.28;;;;;;;18.19;70.33;98766.50;5072431;28;20483;-58
2023/07/29 06:56:23;;;;;;;4.53;2.90;;;;;;;18.25;70.49;98755.91;5072234;28;20040;-64
2023/07/29 06:58:49;;;;;;;4.22;3.10;;;;;;;18.28;69.92;98763.63;5071552;28;20109;-59
2023/07/29 07:01:14;;;;;;;5.78;3.58;;;;;;;18.29;70.03;98762.59;5072148;28;20449;-59
2023/07/29 07:03:40;;;;;;;6.70;3.90;;;;;;;18.35;70.25;98772.66;5072462;28;20029;-58
2023/07/29 07:06:05;;;;;;;5.82;3.60;;;;;;;18.30;69.71;98758.84;5072288;28;20364;-56
2023/07/29 07:08:31;;;;;;;4.20;3.20;;;;;;;18.28;69.38;98761.75;5071997;28;20056;-60
2023/07/29 07:10:57;;;;;;;4.13;3.63;;;;;;;18.22;70.10;98774.22;5070777;28;20044;-57
2023/07/29 07:13:23;;;;;;;3.35;3.03;;;;;;;18.20;70.08;98775.44;5072103;28;20211;-62
2023/07/29 07:15:49;;;;;;;4.70;3.50;;;;;;;18.17;70.17;98778.56;5072286;28;20058;-57
2023/07/29 07:18:14;;;;;;;8.13;3.70;;;;;;;18.14;69.58;98770.84;5071821;28;20105;-57
2023/07/29 07:20:40;;;;;;;6.28;3.25;;;;;;;18.14;70.25;98760.84;5072146;28;20360;-61
2023/07/29 07:23:08;;;;;;;3.55;3.25;;;;;;;18.03;69.82;98737.03;5072105;28;20506;-59
2023/07/29 07:25:34;;;;;;;7.55;3.63;;;;;;;18.26;69.95;98773.81;5072186;28;20032;-67
2023/07/29 07:27:59;;;;;;;7.15;3.50;;;;;;;18.30;70.02;98766.97;5069695;28;20056;-64
2023/07/29 07:30:25;;;;;;;4.93;3.97;;;;;;;18.27;69.55;98761.94;5053936;28;20127;-61
2023/07/29 07:32:50;;;;;;;4.85;4.25;;;;;;;18.22;69.76;98771.53;5075421;28;20059;-60
2023/07/29 07:35:16;;;;;;;10.10;4.40;;;;;;;18.16;70.42;98758.78;5074542;28;20039;-61
2023/07/29 07:37:41;;;;;;;7.82;4.00;;;;;;;18.29;70.02;98768.84;5074593;28;20025;-59
2023/07/29 07:40:07;;;;;;;5.63;3.85;;;;;;;18.34;70.10;98765.56;5074096;28;20037;-61
2023/07/29 07:42:32;;;;;;;7.22;4.60;;;;;;;18.44;69.59;98771.44;5075938;28;20024;-54
2023/07/29 07:44:58;;;;;;;9.35;4.30;;;;;;;18.56;69.31;98768.13;5075105;28;20356;-61
2023/07/29 07:47:24;;;;;;;5.82;3.85;;;;;;;18.61;69.17;98771.91;5073746;28;20139;-59
2023/07/29 07:49:50;;;;;;;7.70;4.40;;;;;;;18.67;69.29;98778.41;5074346;28;20123;-61
2023/07/29 07:52:15;;;;;;;6.50;3.95;;;;;;;18.71;69.02;98776.97;5074739;28;20024;-59
2023/07/29 07:54:41;;;;;;;4.35;3.38;;;;;;;18.68;69.28;98766.53;5074079;28;20032;-61
2023/07/29 07:57:06;;;;;;;5.22;3.90;;;;;;;18.70;69.17;98777.19;5074070;28;20478;-55
2023/07/29 07:59:32;;;;;;;5.82;3.42;;;;;;;18.70;69.35;98778.00;5074747;28;20078;-58
2023/07/29 08:01:57;;;;;;;5.53;3.55;;;;;;;18.65;68.80;98785.91;5075164;28;20150;-62
2023/07/29 08:04:23;;;;;;;7.20;3.70;;;;;;;18.61;69.41;98769.19;5074726;28;20057;-58
2023/07/29 08:06:48;;;;;;;6.13;3.80;;;;;;;18.53;69.59;98772.09;5072877;28;20062;-64
2023/07/29 08:09:14;;;;;;;5.40;3.80;;;;;;;18.44;70.03;98770.56;5073914;28;20122;-57
2023/07/29 08:11:40;;;;;;;7.00;3.90;;;;;;;18.48;70.83;98786.25;5074091;28;20377;-60
2023/07/29 08:14:06;;;;;;;5.70;3.60;;;;;;;18.50;69.87;98773.31;5075260;28;20032;-54
2023/07/29 08:16:31;;;;;;;5.82;3.80;;;;;;;18.54;70.05;98772.91;5074224;28;20036;-59
2023/07/29 08:18:57;;;;;;;6.38;3.88;;;;;;;18.59;70.09;98773.19;5074090;28;20039;-59
2023/07/29 08:21:22;;;;;;;4.85;3.53;;;;;;;18.68;70.08;98782.78;5074591;28;20395;-60
2023/07/29 08:23:47;;;;;;;4.90;3.92;;;;;;;18.76;70.54;98784.50;5075208;28;20056;-59
2023/07/29 08:26:13;;;;;;;3.67;3.38;;;;;;;18.82;70.57;98777.44;5073323;28;20024;-59
2023/07/29 08:28:39;;;;;;;6.32;3.90;;;;;;;18.88;70.29;98788.28;5074473;28;20086;-60
2023/07/29 08:31:06;;;;;;;4.22;3.17;;;;;;;18.81;69.21;98773.88;5074872;28;20115;-59
2023/07/29 08:33:35;;;;;;;6.47;3.40;;;;;;;18.90;69.49;98790.78;5074169;28;20031;-57
2023/07/29 08:36:02;;;;;;;4.18;3.30;;;;;;;18.95;69.59;98788.31;5074226;28;20103;-58
2023/07/29 08:38:28;;;;;;;4.40;2.88;;;;;;;18.79;69.15;98743.41;5074534;28;20063;-59
2023/07/29 08:41:11;;;;;;;3.72;3.40;;;;;;;19.29;69.31;98791.13;5075062;28;20107;-61
2023/07/29 08:43:43;;;;;;;3.80;3.00;;;;;;;19.38;69.25;98780.91;5072996;28;20032;-61
2023/07/29 08:46:09;;;;;;;6.15;3.30;;;;;;;19.22;68.26;98736.84;5089793;28;20406;-61
2023/07/29 08:48:42;;;;;;;4.20;3.20;;;;;;;19.79;67.16;98791.56;5074533;28;20329;-60
2023/07/29 08:51:10;;;;;;;4.65;3.00;;;;;;;19.77;66.89;98784.66;5074177;28;20033;-58
2023/07/29 08:53:36;;;;;;;3.78;3.40;;;;;;;19.88;66.55;98789.47;5074028;28;20094;-57
2023/07/29 08:56:03;;;;;;;5.50;4.00;;;;;;;19.93;66.13;98788.88;5073386;28;20056;-57
2023/07/29 08:58:29;;;;;;;5.05;3.90;;;;;;;19.81;65.93;98788.66;5074133;28;20032;-55
2023/07/29 09:00:55;;;;;;;6.55;3.78;;;;;;;19.68;66.13;98794.06;5072837;28;20024;-55
2023/07/29 09:03:21;;;;;;;4.32;3.92;;;;;;;19.56;65.99;98783.00;5073759;28;20052;-53
2023/07/29 09:05:47;;;;;;;4.28;3.88;;;;;;;19.41;66.76;98775.06;5074066;28;20090;-58
2023/07/29 09:08:13;;;;;;;6.07;4.18;;;;;;;19.40;66.51;98776.94;5073837;28;20457;-63
2023/07/29 09:10:39;;;;;;;6.43;4.22;;;;;;;19.34;66.69;98775.91;5073762;28;20044;-56
2023/07/29 09:13:05;;;;;;;8.02;6.30;;;;;;;19.32;67.31;98777.13;5073495;28;20043;-56
2023/07/29 09:15:33;;;;;;;6.97;4.32;;;;;;;19.36;67.59;98779.25;5074338;28;20127;-58
2023/07/29 09:18:08;;;;;;;7.57;4.68;;;;;;;19.39;66.89;98783.41;5072952;28;20032;-54
2023/07/29 09:20:33;;;;;;;8.70;4.50;;;;;;;19.32;66.04;98769.00;5072775;28;20399;-59
2023/07/29 09:23:00;;;;;;;9.23;5.00;;;;;;;19.30;66.83;98784.66;5073325;28;20044;-58
2023/07/29 09:25:27;;;;;;;7.75;5.97;;;;;;;19.25;67.40;98782.56;5073929;28;20036;-52
2023/07/29 09:27:58;;;;;;;7.05;4.57;;;;;;;19.24;66.64;98788.19;5074455;28;20075;-60
2023/07/29 09:30:24;;;;;;;6.25;4.80;;;;;;;19.32;66.92;98794.28;5074044;28;20076;-57
2023/07/29 09:32:55;;;;;;;8.25;4.90;;;;;;;19.27;66.71;98791.31;5073803;28;20036;-54
2023/07/29 09:35:20;;;;;;;6.82;4.82;;;;;;;19.11;67.15;98775.44;5073781;28;20032;-60
2023/07/29 09:37:46;;;;;;;7.18;4.72;;;;;;;19.16;67.15;98794.66;5056448;28;20337;-61
2023/07/29 09:40:18;;;;;;;7.32;5.07;;;;;;;19.13;67.25;98804.03;5072931;28;20025;-66
2023/07/29 09:42:51;;;;;;;8.23;5.28;;;;;;;19.07;67.69;98803.00;5065959;28;20032;-62
2023/07/29 09:45:25;;;;;;;6.15;4.82;;;;;;;19.01;67.76;98800.25;5072135;28;20070;-61
2023/07/29 09:47:52;;;;;;;5.55;4.90;;;;;;;18.79;68.67;98801.19;5073617;28;20074;-62
2023/07/29 09:50:18;;;;;;;5.43;4.75;;;;;;;18.83;68.05;98804.31;5073258;28;20055;-60
2023/07/29 09:52:44;;;;;;;6.55;5.10;;;;;;;18.93;67.55;98806.66;5073396;28;20452;-62
2023/07/29 09:55:12;;;;;;;6.95;4.80;;;;;;;19.09;68.23;98805.47;5073010;28;20025;-61
2023/07/29 09:57:40;;;;;;;5.85;4.35;;;;;;;19.12;67.69;98804.25;5073429;28;20039;-59
2023/07/29 10:00:10;;;;;;;5.43;4.88;;;;;;;19.13;67.41;98801.31;5073171;28;20357;-60
2023/07/29 10:02:39;;;;;;;4.60;4.20;;;;;;;19.22;67.18;98801.97;5072422;28;20028;-59
2023/07/29 10:05:06;;;;;;;5.43;4.53;;;;;;;19.30;67.50;98804.50;5073409;28;20064;-60
2023/07/29 10:07:33;;;;;;;6.05;4.68;;;;;;;19.35;67.44;98810.13;5072811;28;20059;-60
2023/07/29 10:09:59;;;;;;;6.00;4.75;;;;;;;19.30;67.38;98796.38;5073300;28;20048;-63
2023/07/29 10:12:25;;;;;;;6.55;4.70;;;;;;;19.39;67.18;98810.53;5072756;28;20051;-61
2023/07/29 10:14:52;;;;;;;6.18;5.28;;;;;;;19.40;66.99;98798.66;5073188;28;20040;-61
2023/07/29 10:17:20;;;;;;;5.97;5.30;;;;;;;19.55;66.84;98814.75;5073226;28;20029;-59
2023/07/29 10:19:47;;;;;;;7.28;5.35;;;;;;;19.59;66.22;98804.31;5072869;28;20044;-60
2023/07/29 10:22:17;;;;;;;6.22;5.28;;;;;;;19.68;66.79;98805.78;5072868;28;20029;-60
2023/07/29 10:24:43;;;;;;;6.50;5.22;;;;;;;19.77;66.28;98807.25;5072337;28;20028;-60
2023/07/29 10:27:14;;;;;;;4.97;4.45;;;;;;;19.84;64.66;98804.53;5073471;28;20577;-61
2023/07/29 10:29:43;;;;;;;6.90;4.82;;;;;;;19.84;65.08;98812.69;5073062;28;20033;-61
2023/07/29 10:32:11;;;;;;;5.35;4.65;;;;;;;19.85;65.47;98814.34;5071316;28;20369;-61
2023/07/29 10:34:38;;;;;;;7.40;5.10;;;;;;;19.70;65.51;98808.28;5073240;28;20040;-63
2023/07/29 10:37:04;;;;;;;5.45;4.75;;;;;;;19.73;66.46;98816.00;5072616;28;20140;-63
2023/07/29 10:39:40;;;;;;;6.35;5.47;;;;;;;19.72;66.56;98825.19;5072969;28;20063;-61
2023/07/29 10:42:07;;;;;;;6.13;4.72;;;;;;;19.53;66.94;98811.41;5072028;28;20071;-60
2023/07/29 10:44:49;;;;;;;8.02;4.93;;;;;;;19.57;66.05;98826.25;5072225;28;20156;-64
2023/07/29 10:47:16;;;;;;;5.80;4.88;;;;;;;19.47;67.29;98817.66;5071167;28;20178;-60
2023/07/29 10:49:46;;;;;;;6.50;4.97;;;;;;;19.51;66.35;98817.03;5072673;28;20032;-61
2023/07/29 10:52:16;;;;;;;5.78;5.18;;;;;;;19.57;67.28;98815.38;5072343;28;20089;-61
2023/07/29 10:54:47;;;;;;;8.32;4.95;;;;;;;19.62;67.37;98810.16;5072559;28;20483;-60
2023/07/29 10:57:15;;;;;;;4.43;4.03;;;;;;;19.65;66.04;98811.59;5071797;28;20453;-58
2023/07/29 10:59:41;;;;;;;5.38;4.88;;;;;;;19.68;66.22;98805.78;5054882;28;20032;-61
2023/07/29 11:02:18;;;;;;;5.55;4.85;;;;;;;19.79;66.14;98807.03;5072487;28;20067;-60
2023/07/29 11:04:49;;;;;;;5.93;4.90;;;;;;;19.70;65.88;98805.56;5071021;28;20029;-61
2023/07/29 11:07:15;;;;;;;5.13;4.30;;;;;;;19.62;65.72;98802.03;5051560;28;20033;-61
2023/07/29 11:09:49;;;;;;;7.55;4.65;;;;;;;19.75;66.10;98803.06;5052406;28;20060;-62
2023/07/29 11:12:45;;;;;;;5.80;4.93;;;;;;;19.80;66.57;98797.84;5052478;28;20373;-61
2023/07/29 11:15:11;;;;;;;8.48;5.15;;;;;;;19.70;66.45;98805.56;5052316;28;20476;-60
2023/07/29 11:17:42;;;;;;;5.82;4.97;;;;;;;19.76;66.62;98807.44;5066719;28;20064;-58
2023/07/29 11:20:08;;;;;;;7.47;5.38;;;;;;;19.83;67.62;98810.16;5071070;28;20032;-60
2023/07/29 11:22:34;;;;;;;4.97;4.47;;;;;;;20.01;66.36;98799.53;5071537;28;20020;-64
2023/07/29 11:25:00;;;;;;;7.85;4.57;;;;;;;20.15;65.40;98808.50;5072793;28;20082;-61
2023/07/29 11:27:26;;;;;;;6.50;4.82;;;;;;;20.18;64.07;98802.63;5072152;28;20073;-60
2023/07/29 11:30:07;;;;;;;5.70;4.57;;;;;;;20.28;64.77;98809.53;5068757;28;20041;-61
2023/07/29 11:32:35;;;;;;;5.70;4.38;;;;;;;20.17;63.44;98806.41;5066939;28;20120;-61